Time;durP1;ratioP1;P1;durP2;ratioP2;P2;SDS_P1;SDS_P2;PMS_P1;PMS_P2;Temp;Humidity;BMP_temperature;BMP_pressure;BME280_temperature;BME280_humidity;BME280_pressure;Samples;Min_cycle;Max_cycle;Signal;HPM_P1;HPM_P2
2023/05/30 00:00:13;;;;;;;13.65;3.00;;;14.80;86.30;;;;;;4959863;28;20031;-92
2023/05/30 00:02:39;;;;;;;14.73;3.23;;;14.80;86.50;;;;;;4959950;28;20031;-88
2023/05/30 00:05:05;;;;;;;15.77;3.20;;;14.80;86.80;;;;;;4966172;28;20038;-94
2023/05/30 00:07:31;;;;;;;14.73;2.65;;;14.70;86.90;;;;;;4980889;28;20015;-94
2023/05/30 00:09:56;;;;;;;13.55;3.30;;;14.70;87.00;;;;;;4981560;28;20023;-93
2023/05/30 00:12:23;;;;;;;16.42;3.35;;;14.70;87.20;;;;;;4984870;28;20115;-88
2023/05/30 00:14:49;;;;;;;14.07;3.05;;;14.60;87.30;;;;;;4974424;28;20011;-88
2023/05/30 00:17:16;;;;;;;14.55;3.38;;;14.60;87.50;;;;;;4959107;28;20033;-90
2023/05/30 00:19:42;;;;;;;13.07;2.53;;;14.60;87.70;;;;;;4959020;28;20388;-89
2023/05/30 00:22:08;;;;;;;9.52;2.65;;;14.50;87.90;;;;;;4976522;28;20047;-89
2023/05/30 00:24:34;;;;;;;15.02;3.17;;;14.50;88.10;;;;;;4974986;28;20030;-88
2023/05/30 00:27:00;;;;;;;12.93;2.95;;;14.50;88.10;;;;;;4958640;28;20035;-89
2023/05/30 00:29:25;;;;;;;14.90;3.65;;;14.50;88.50;;;;;;4974678;28;20049;-89
2023/05/30 00:31:51;;;;;;;14.52;3.22;;;14.50;88.80;;;;;;4974565;28;20019;-90
2023/05/30 00:34:17;;;;;;;13.65;2.70;;;14.40;88.80;;;;;;4992272;28;20031;-91
2023/05/30 00:36:43;;;;;;;14.40;2.78;;;14.40;88.90;;;;;;4959325;28;20093;-90
2023/05/30 00:39:08;;;;;;;11.07;2.92;;;14.40;89.40;;;;;;4958897;28;20066;-91
2023/05/30 00:41:34;;;;;;;13.18;3.17;;;14.30;89.40;;;;;;4963847;28;20109;-88
2023/05/30 00:44:00;;;;;;;9.90;2.92;;;14.30;89.60;;;;;;4977451;28;20034;-88
2023/05/30 00:46:29;;;;;;;18.73;3.35;;;14.30;89.70;;;;;;4973796;28;20027;-87
2023/05/30 00:48:56;;;;;;;16.92;3.03;;;14.30;89.90;;;;;;4962935;28;20035;-88
2023/05/30 00:51:26;;;;;;;15.00;2.85;;;14.30;90.10;;;;;;4978194;28;20022;-89
2023/05/30 00:53:52;;;;;;;13.35;2.97;;;14.20;90.10;;;;;;4978725;28;20026;-88
2023/05/30 00:56:18;;;;;;;12.13;2.75;;;14.20;90.20;;;;;;4963053;28;20082;-90
2023/05/30 00:58:45;;;;;;;13.23;3.17;;;14.20;90.30;;;;;;4962053;28;20082;-90
2023/05/30 01:01:12;;;;;;;15.23;3.25;;;14.10;90.40;;;;;;4961986;28;20062;-90
2023/05/30 01:03:38;;;;;;;14.32;3.33;;;14.10;90.40;;;;;;4961611;28;20070;-91
2023/05/30 01:06:03;;;;;;;23.08;3.60;;;14.10;90.50;;;;;;4961386;28;20034;-92
2023/05/30 01:08:29;;;;;;;15.98;3.13;;;14.00;90.60;;;;;;4962231;28;20053;-91
2023/05/30 01:11:24;;;;;;;14.95;3.30;;;14.00;90.80;;;;;;4962324;28;20031;-88
2023/05/30 01:13:58;;;;;;;13.30;3.30;;;14.00;90.80;;;;;;4977631;28;20039;-89
2023/05/30 01:16:27;;;;;;;12.98;2.95;;;13.90;91.00;;;;;;4977858;28;20118;-90
2023/05/30 01:18:59;;;;;;;15.80;3.80;;;13.90;91.10;;;;;;4977814;28;20030;-91
2023/05/30 01:21:26;;;;;;;14.23;3.20;;;13.80;91.20;;;;;;4978428;28;20372;-89
2023/05/30 01:24:15;;;;;;;14.07;3.17;;;13.80;91.30;;;;;;4977279;28;20037;-90
2023/05/30 01:26:59;;;;;;;13.75;3.00;;;13.80;91.50;;;;;;4979037;28;20417;-95
2023/05/30 01:29:26;;;;;;;13.70;3.22;;;13.70;91.50;;;;;;4979274;28;20034;-95
2023/05/30 01:31:54;;;;;;;11.88;2.85;;;13.70;91.60;;;;;;4978630;28;20099;-96
2023/05/30 01:34:20;;;;;;;17.00;3.13;;;13.70;91.80;;;;;;4979132;28;20031;-94
2023/05/30 01:36:46;;;;;;;17.38;3.70;;;13.70;91.80;;;;;;4962619;28;20118;-94
2023/05/30 01:39:11;;;;;;;17.13;3.63;;;13.60;91.90;;;;;;4962194;28;20066;-92
2023/05/30 01:41:58;;;;;;;14.30;3.13;;;13.60;92.00;;;;;;4962175;28;20038;-88
2023/05/30 01:44:59;;;;;;;18.05;3.78;;;13.50;92.10;;;;;;4977016;28;20026;-90
2023/05/30 01:48:02;;;;;;;22.70;4.32;;;13.50;92.30;;;;;;4975809;28;20091;-89
2023/05/30 01:50:43;;;;;;;17.65;3.42;;;13.40;92.40;;;;;;4976394;28;20030;-88
2023/05/30 01:53:21;;;;;;;15.63;2.75;;;13.40;92.50;;;;;;4976090;28;20023;-89
2023/05/30 01:55:50;;;;;;;19.58;3.25;;;13.40;92.60;;;;;;4976344;28;20053;-89
2023/05/30 01:58:18;;;;;;;16.40;3.35;;;13.40;92.80;;;;;;4976520;28;20026;-95
2023/05/30 02:00:49;;;;;;;14.90;3.58;;;13.40;92.90;;;;;;4960969;28;20047;-94
2023/05/30 02:03:16;;;;;;;17.15;3.78;;;13.40;93.00;;;;;;4976711;28;20023;-89
2023/05/30 02:05:41;;;;;;;14.90;4.03;;;13.40;93.20;;;;;;4976322;28;20045;-89
2023/05/30 02:08:07;;;;;;;21.73;3.80;;;13.40;93.30;;;;;;4959834;28;20119;-89
2023/05/30 02:10:33;;;;;;;13.32;3.72;;;13.40;93.30;;;;;;4959946;28;20027;-89
2023/05/30 02:12:59;;;;;;;16.67;3.25;;;13.40;93.30;;;;;;4960034;28;20043;-90
2023/05/30 02:15:25;;;;;;;15.95;3.70;;;13.40;93.40;;;;;;4976369;28;20038;-94
2023/05/30 02:17:50;;;;;;;12.93;2.75;;;13.40;93.60;;;;;;4960530;28;20039;-92
2023/05/30 02:20:16;;;;;;;14.35;3.45;;;13.40;93.70;;;;;;4960496;28;20046;-93
2023/05/30 02:22:42;;;;;;;13.35;2.97;;;13.40;93.90;;;;;;4960651;28;20607;-94
2023/05/30 02:25:09;;;;;;;15.05;3.33;;;13.40;93.90;;;;;;4961043;28;20134;-94
2023/05/30 02:27:35;;;;;;;13.43;3.47;;;13.40;94.00;;;;;;4961147;28;20366;-94
2023/05/30 02:30:00;;;;;;;16.90;4.00;;;13.40;94.10;;;;;;4976143;28;20049;-90
2023/05/30 02:32:26;;;;;;;18.33;3.72;;;13.40;94.20;;;;;;4976773;28;20019;-90
2023/05/30 02:34:52;;;;;;;15.65;3.20;;;13.40;94.30;;;;;;4960928;28;20030;-90
2023/05/30 02:37:17;;;;;;;16.75;3.45;;;13.40;94.50;;;;;;4963717;28;20450;-90
2023/05/30 02:39:44;;;;;;;19.50;3.05;;;13.40;94.60;;;;;;4965658;28;20041;-92
2023/05/30 02:42:10;;;;;;;13.35;3.42;;;13.40;94.60;;;;;;4983338;28;20018;-89
2023/05/30 02:44:36;;;;;;;16.52;3.80;;;13.40;94.70;;;;;;4966700;28;20033;-87
2023/05/30 02:47:01;;;;;;;14.73;2.92;;;13.40;94.80;;;;;;4959225;28;20484;-88
2023/05/30 02:49:27;;;;;;;16.20;3.47;;;13.40;94.90;;;;;;4959411;28;20035;-89
2023/05/30 02:51:53;;;;;;;16.38;3.83;;;13.40;94.90;;;;;;4976320;28;20371;-96
2023/05/30 02:54:18;;;;;;;14.80;3.28;;;13.40;95.00;;;;;;4960832;28;20029;-95
2023/05/30 02:56:44;;;;;;;21.15;4.07;;;13.40;95.00;;;;;;4960243;28;20362;-95
2023/05/30 02:59:10;;;;;;;17.23;3.95;;;13.30;95.10;;;;;;4960565;28;20065;-95
2023/05/30 03:01:35;;;;;;;21.52;3.67;;;13.40;95.30;;;;;;4960839;28;20050;-95
2023/05/30 03:04:01;;;;;;;15.15;3.00;;;13.40;95.40;;;;;;4960267;28;20077;-96
2023/05/30 03:06:27;;;;;;;13.23;3.88;;;13.40;95.40;;;;;;4960478;28;20113;-95
2023/05/30 03:09:00;;;;;;;14.95;3.88;;;13.40;95.50;;;;;;4960252;28;20077;-95
2023/05/30 03:11:27;;;;;;;15.00;3.67;;;13.30;95.60;;;;;;4961165;28;20038;-95
2023/05/30 03:13:53;;;;;;;13.43;2.85;;;13.40;95.70;;;;;;4976766;28;20118;-94
2023/05/30 03:16:18;;;;;;;14.48;3.80;;;13.40;95.80;;;;;;4977141;28;20113;-94
2023/05/30 03:18:44;;;;;;;15.88;3.20;;;13.30;95.80;;;;;;4960719;28;20030;-94
2023/05/30 03:21:10;;;;;;;20.67;3.63;;;13.40;95.80;;;;;;4960968;28;20388;-93
2023/05/30 03:23:36;;;;;;;17.42;3.88;;;13.40;95.90;;;;;;4959586;28;20395;-89
2023/05/30 03:26:03;;;;;;;16.88;3.53;;;13.30;95.90;;;;;;4958706;28;20038;-88
2023/05/30 03:28:29;;;;;;;11.40;3.08;;;13.30;96.00;;;;;;4959485;28;20032;-88
2023/05/30 03:30:56;;;;;;;15.20;3.33;;;13.30;96.10;;;;;;4959463;28;20031;-89
2023/05/30 03:33:22;;;;;;;13.25;3.30;;;13.30;96.20;;;;;;4979058;28;20015;-87
2023/05/30 03:35:49;;;;;;;12.35;3.55;;;13.30;96.20;;;;;;4995800;28;20030;-87
2023/05/30 03:38:15;;;;;;;12.98;3.53;;;13.30;96.20;;;;;;4972286;28;20129;-94
2023/05/30 03:40:41;;;;;;;15.40;4.13;;;13.30;96.30;;;;;;4976223;28;20456;-91
2023/05/30 03:43:07;;;;;;;8.75;3.45;;;13.30;96.30;;;;;;4976281;28;20030;-90
2023/05/30 03:45:33;;;;;;;14.35;3.40;;;13.30;96.40;;;;;;4961109;28;20027;-90
2023/05/30 03:47:59;;;;;;;13.40;3.35;;;13.30;96.40;;;;;;4960390;28;20025;-91
2023/05/30 03:50:24;;;;;;;17.95;3.33;;;13.30;96.60;;;;;;4959018;28;20046;-91
2023/05/30 03:52:50;;;;;;;12.05;3.40;;;13.30;96.60;;;;;;4959013;28;20465;-91
2023/05/30 03:55:16;;;;;;;12.23;3.33;;;13.30;96.70;;;;;;4958774;28;20027;-90
2023/05/30 03:57:41;;;;;;;12.10;2.83;;;13.30;96.70;;;;;;4958738;28;20109;-90
2023/05/30 04:00:09;;;;;;;13.38;3.85;;;13.30;96.80;;;;;;4958607;28;20045;-90
2023/05/30 04:02:34;;;;;;;12.82;3.55;;;13.30;96.90;;;;;;4958603;28;20041;-90
2023/05/30 04:05:00;;;;;;;14.90;3.90;;;13.30;97.00;;;;;;4958491;28;20035;-90
2023/05/30 04:07:27;;;;;;;12.43;3.35;;;13.30;97.00;;;;;;4958655;28;20130;-90
2023/05/30 04:09:53;;;;;;;13.60;4.18;;;13.30;97.10;;;;;;4958644;28;20027;-91
2023/05/30 04:12:18;;;;;;;15.77;4.15;;;13.30;97.10;;;;;;4958445;28;20085;-91
2023/05/30 04:14:45;;;;;;;12.77;3.40;;;13.30;97.10;;;;;;4960862;28;20034;-91
2023/05/30 04:17:11;;;;;;;12.90;3.70;;;13.30;97.20;;;;;;4966525;28;20031;-90
2023/05/30 04:19:37;;;;;;;13.75;3.95;;;13.30;97.20;;;;;;4966794;28;20493;-90
2023/05/30 04:22:02;;;;;;;10.32;3.40;;;13.30;97.20;;;;;;4967212;28;20109;-90
2023/05/30 04:24:31;;;;;;;17.33;4.38;;;13.30;97.30;;;;;;4962259;28;20420;-91
2023/05/30 04:26:57;;;;;;;8.93;3.13;;;13.30;97.30;;;;;;4962709;28;20023;-90
2023/05/30 04:29:23;;;;;;;14.85;4.00;;;13.30;97.30;;;;;;4962217;28;20027;-90
2023/05/30 04:31:49;;;;;;;9.93;3.42;;;13.30;97.40;;;;;;4961468;28;20114;-89
2023/05/30 04:34:17;;;;;;;14.10;3.88;;;13.30;97.40;;;;;;4961803;28;20035;-90
2023/05/30 04:36:44;;;;;;;12.75;3.50;;;13.30;97.50;;;;;;4961669;28;20046;-90
2023/05/30 04:39:10;;;;;;;11.93;4.32;;;13.30;97.60;;;;;;4961230;28;20027;-90
2023/05/30 04:41:36;;;;;;;11.10;3.28;;;13.30;97.60;;;;;;4961542;28;20389;-90
2023/05/30 04:44:02;;;;;;;10.40;3.90;;;13.40;97.70;;;;;;4962375;28;20384;-90
2023/05/30 04:46:28;;;;;;;17.92;4.68;;;13.30;97.70;;;;;;4961382;28;20468;-89
2023/05/30 04:48:58;;;;;;;11.50;4.05;;;13.30;97.70;;;;;;4961376;28;20027;-89
2023/05/30 04:51:24;;;;;;;12.52;4.20;;;13.30;97.70;;;;;;4978193;28;20404;-90
2023/05/30 04:53:51;;;;;;;14.90;3.95;;;13.30;97.80;;;;;;4978217;28;20551;-94
2023/05/30 04:56:17;;;;;;;11.18;3.67;;;13.40;97.90;;;;;;4962206;28;20035;-96
2023/05/30 04:58:48;;;;;;;15.55;4.10;;;13.40;97.90;;;;;;4961929;28;20046;-96
2023/05/30 05:01:14;;;;;;;14.27;4.03;;;13.40;97.90;;;;;;4978555;28;20403;-95
2023/05/30 05:03:40;;;;;;;10.68;3.53;;;13.40;97.80;;;;;;4978156;28;20027;-95
2023/05/30 05:06:09;;;;;;;11.18;3.92;;;13.30;97.80;;;;;;4962022;28;20514;-95
2023/05/30 05:08:35;;;;;;;11.18;3.83;;;13.40;97.90;;;;;;4978442;28;20023;-95
2023/05/30 05:11:05;;;;;;;12.95;3.83;;;13.40;97.90;;;;;;4961034;28;20023;-90
2023/05/30 05:13:32;;;;;;;14.03;4.03;;;13.40;97.90;;;;;;4975797;28;20496;-89
2023/05/30 05:16:00;;;;;;;10.25;3.50;;;13.40;97.90;;;;;;4977489;28;20030;-92
2023/05/30 05:18:27;;;;;;;14.45;4.22;;;13.30;97.90;;;;;;4961961;28;20035;-90
2023/05/30 05:20:53;;;;;;;12.05;3.95;;;13.30;97.90;;;;;;4962079;28;20034;-91
2023/05/30 05:23:18;;;;;;;9.68;3.50;;;13.40;98.00;;;;;;4966759;28;20037;-91
2023/05/30 05:25:45;;;;;;;11.13;3.63;;;13.40;98.00;;;;;;4960597;28;20047;-91
2023/05/30 05:28:11;;;;;;;16.73;4.28;;;13.40;98.00;;;;;;4962134;28;20026;-90
2023/05/30 05:30:36;;;;;;;13.02;3.60;;;13.40;98.10;;;;;;4964041;28;20066;-89
2023/05/30 05:33:02;;;;;;;12.45;3.75;;;13.40;98.10;;;;;;4979793;28;20026;-90
2023/05/30 05:35:28;;;;;;;12.63;3.78;;;13.40;98.20;;;;;;4961933;28;20035;-91
2023/05/30 05:37:54;;;;;;;17.58;3.60;;;13.40;98.20;;;;;;4978744;28;20030;-91
2023/05/30 05:40:20;;;;;;;13.90;3.92;;;13.40;98.20;;;;;;4962485;28;20031;-91
2023/05/30 05:42:46;;;;;;;16.42;4.80;;;13.40;98.20;;;;;;4961777;28;20041;-89
2023/05/30 05:45:12;;;;;;;15.27;4.30;;;13.40;98.20;;;;;;4961185;28;20054;-90
2023/05/30 05:47:37;;;;;;;12.18;3.92;;;13.40;98.20;;;;;;4976659;28;20038;-91
2023/05/30 05:50:04;;;;;;;13.75;3.72;;;13.40;98.30;;;;;;4960860;28;20097;-90
2023/05/30 05:52:30;;;;;;;11.07;4.30;;;13.40;98.30;;;;;;4960382;28;20384;-88
2023/05/30 05:54:56;;;;;;;14.00;4.20;;;13.40;98.40;;;;;;4960498;28;20073;-89
2023/05/30 05:57:22;;;;;;;12.15;4.15;;;13.50;98.50;;;;;;4960739;28;20034;-89
2023/05/30 05:59:48;;;;;;;12.85;4.38;;;13.50;98.60;;;;;;4984954;28;20051;-92
2023/05/30 06:02:13;;;;;;;10.75;4.03;;;13.50;98.70;;;;;;4975195;28;20030;-92
2023/05/30 06:04:39;;;;;;;15.27;4.43;;;13.50;98.70;;;;;;4975060;28;20070;-92
2023/05/30 06:07:05;;;;;;;12.02;3.20;;;13.50;98.70;;;;;;4975116;28;20038;-92
2023/05/30 06:09:31;;;;;;;10.23;4.15;;;13.50;98.60;;;;;;4965846;28;20035;-91
2023/05/30 06:11:58;;;;;;;14.98;4.18;;;13.60;98.70;;;;;;4966910;28;20126;-92
2023/05/30 06:14:26;;;;;;;9.85;4.00;;;13.60;98.80;;;;;;4974460;28;20051;-91
2023/05/30 06:16:55;;;;;;;10.23;4.03;;;13.60;98.70;;;;;;4973631;28;20031;-91
2023/05/30 06:19:21;;;;;;;13.10;3.80;;;13.60;98.80;;;;;;4967721;28;20097;-91
2023/05/30 06:21:47;;;;;;;13.50;3.85;;;13.60;98.80;;;;;;4969974;28;20034;-90
2023/05/30 06:24:13;;;;;;;10.85;3.85;;;13.70;98.90;;;;;;4965799;28;20030;-91
2023/05/30 06:26:38;;;;;;;10.40;3.20;;;13.70;99.00;;;;;;4960243;28;20070;-89
2023/05/30 06:29:04;;;;;;;8.23;3.33;;;13.70;99.00;;;;;;4960521;28;20147;-90
2023/05/30 06:31:31;;;;;;;12.75;4.22;;;13.70;99.00;;;;;;4975960;28;20023;-89
2023/05/30 06:33:56;;;;;;;14.90;4.50;;;13.70;99.00;;;;;;4975693;28;20023;-89
2023/05/30 06:36:22;;;;;;;12.57;3.72;;;13.70;99.10;;;;;;4961947;28;20027;-95
2023/05/30 06:38:48;;;;;;;13.48;3.63;;;13.70;99.00;;;;;;4963903;28;20030;-95
2023/05/30 06:41:14;;;;;;;13.50;4.30;;;13.80;99.10;;;;;;4995332;28;20026;-92
2023/05/30 06:43:40;;;;;;;11.48;3.55;;;13.80;99.10;;;;;;4960765;28;20038;-92
2023/05/30 06:46:06;;;;;;;12.55;3.97;;;13.80;99.10;;;;;;4960412;28;20039;-91
2023/05/30 06:48:32;;;;;;;11.10;4.07;;;13.80;99.00;;;;;;4960482;28;20384;-91
2023/05/30 06:50:57;;;;;;;14.45;3.67;;;13.80;99.10;;;;;;4987226;28;20019;-91
2023/05/30 06:53:23;;;;;;;10.80;3.80;;;13.80;99.10;;;;;;4975438;28;20031;-91
2023/05/30 06:55:48;;;;;;;11.65;3.85;;;13.80;99.20;;;;;;4975518;28;20027;-92
2023/05/30 06:58:14;;;;;;;12.32;3.88;;;13.90;99.10;;;;;;4986477;28;20432;-90
2023/05/30 07:00:40;;;;;;;9.00;4.05;;;13.90;99.10;;;;;;4959170;28;20472;-90
2023/05/30 07:03:06;;;;;;;11.57;4.13;;;13.90;99.20;;;;;;4959851;28;20031;-89
2023/05/30 07:05:31;;;;;;;11.18;3.80;;;13.90;99.20;;;;;;4991910;28;20452;-90
2023/05/30 07:08:22;;;;;;;14.05;3.78;;;13.90;99.10;;;;;;4738168;27;10106406;-90
2023/05/30 07:13:57;;;;;;;11.15;3.72;;;13.90;98.80;;;;;;5000885;28;20029;-91
2023/05/30 07:16:45;;;;;;;13.88;4.35;;;13.90;98.70;;;;;;5014895;28;20034;-91
2023/05/30 07:19:26;;;;;;;11.80;3.92;;;13.90;98.70;;;;;;5032159;28;20108;-91
2023/05/30 07:22:15;;;;;;;10.52;4.30;;;13.90;98.70;;;;;;5015433;28;20082;-90
2023/05/30 07:24:41;;;;;;;15.20;4.30;;;13.90;98.70;;;;;;5031526;28;20033;-91
2023/05/30 07:27:23;;;;;;;;;;;;;;;;;;;;;
2023/05/30 07:32:38;;;;;;;11.15;4.25;;;14.00;98.70;;;;;;5032501;28;20030;-90
2023/05/30 07:35:06;;;;;;;12.60;3.88;;;14.00;98.70;;;;;;5043208;28;20057;-91
2023/05/30 07:37:49;;;;;;;;;;;;;;;;;;;;;
2023/05/30 07:40:17;;;;;;;13.52;3.85;;;14.00;98.70;;;;;;5051365;28;20036;-90
2023/05/30 07:42:53;;;;;;;;;;;;;;;;;;;;;
2023/05/30 07:51:17;;;;;;;11.88;3.90;;;14.20;98.60;;;;;;5199879;22;20085;-95
2023/05/30 07:53:43;;;;;;;9.82;4.05;;;14.20;98.50;;;;;;4985325;28;20045;-95
2023/05/30 07:56:12;;;;;;;10.18;3.75;;;14.30;98.50;;;;;;4982994;28;20124;-95
2023/05/30 07:58:38;;;;;;;13.15;3.78;;;14.30;98.50;;;;;;4982659;28;20055;-95
2023/05/30 08:01:05;;;;;;;10.27;3.65;;;14.40;98.50;;;;;;5014398;28;20479;-95
2023/05/30 08:03:32;;;;;;;10.02;3.63;;;14.40;98.50;;;;;;4998277;28;20049;-95
2023/05/30 08:05:58;;;;;;;12.68;4.20;;;14.50;98.40;;;;;;4981700;28;20064;-95
2023/05/30 08:08:25;;;;;;;14.35;4.20;;;14.50;98.30;;;;;;5014315;28;20471;-95
2023/05/30 08:10:51;;;;;;;11.75;4.22;;;14.60;98.30;;;;;;5015254;28;20022;-93
2023/05/30 08:13:18;;;;;;;9.52;3.75;;;14.70;98.30;;;;;;5013696;28;20113;-93
2023/05/30 08:15:44;;;;;;;10.13;4.15;;;14.70;98.30;;;;;;5014487;28;20117;-92
2023/05/30 08:18:11;;;;;;;12.30;4.10;;;14.80;98.30;;;;;;4992575;28;20050;-93
2023/05/30 08:20:37;;;;;;;11.30;3.85;;;14.80;98.30;;;;;;4984857;28;20446;-89
2023/05/30 08:23:03;;;;;;;9.63;3.75;;;14.90;98.30;;;;;;5003658;28;20026;-88
2023/05/30 08:25:33;;;;;;;13.82;4.32;;;14.90;98.40;;;;;;4970287;28;20033;-87
2023/05/30 08:28:02;;;;;;;11.98;4.28;;;15.00;98.50;;;;;;4987750;28;20471;-89
2023/05/30 08:30:28;;;;;;;9.70;3.67;;;15.10;98.50;;;;;;4985144;28;20018;-91
2023/05/30 08:32:55;;;;;;;11.82;3.95;;;15.10;98.30;;;;;;4984634;28;20121;-91
2023/05/30 08:35:21;;;;;;;9.48;3.90;;;15.10;98.10;;;;;;4983856;28;20022;-90
2023/05/30 08:37:47;;;;;;;12.95;4.15;;;15.10;98.00;;;;;;4983991;28;20093;-91
2023/05/30 08:40:14;;;;;;;15.75;4.82;;;15.20;98.00;;;;;;5017324;28;20100;-89
2023/05/30 08:42:41;;;;;;;14.10;4.55;;;15.30;98.00;;;;;;4999741;28;20048;-89
2023/05/30 08:45:07;;;;;;;11.75;4.22;;;15.30;98.00;;;;;;4999703;28;20017;-89
2023/05/30 08:47:35;;;;;;;10.30;4.10;;;15.30;98.00;;;;;;4983402;28;20030;-89
2023/05/30 08:50:09;;;;;;;10.50;4.13;;;15.40;98.10;;;;;;4996546;28;20046;-89
2023/05/30 08:52:35;;;;;;;9.02;3.45;;;15.40;98.10;;;;;;5015777;28;20117;-89
2023/05/30 08:55:10;;;;;;;11.25;3.97;;;15.50;98.50;;;;;;5003810;28;20049;-88
2023/05/30 08:58:15;;;;;;;10.75;4.47;;;15.50;98.30;;;;;;4998913;28;20112;-88
2023/05/30 09:00:42;;;;;;;12.65;3.95;;;15.60;98.30;;;;;;4969448;28;20517;-87
2023/05/30 09:03:10;;;;;;;12.48;4.60;;;15.60;98.20;;;;;;4999038;28;20460;-89
2023/05/30 09:05:37;;;;;;;11.15;4.13;;;15.70;98.30;;;;;;4999583;28;20132;-89
2023/05/30 09:08:03;;;;;;;10.75;4.53;;;15.70;98.30;;;;;;4999546;28;20360;-89
2023/05/30 09:10:30;;;;;;;10.85;4.30;;;15.80;98.40;;;;;;4983148;28;20057;-89
2023/05/30 09:12:57;;;;;;;17.25;4.43;;;15.80;98.40;;;;;;4991278;28;20026;-90
2023/05/30 09:15:23;;;;;;;14.63;4.70;;;15.80;98.20;;;;;;5005096;28;20021;-90
2023/05/30 09:17:49;;;;;;;12.68;4.43;;;15.90;98.10;;;;;;5004574;28;20379;-90
2023/05/30 09:20:16;;;;;;;13.48;4.47;;;15.90;98.00;;;;;;5004417;28;20034;-90
2023/05/30 09:22:43;;;;;;;11.75;4.18;;;16.00;97.90;;;;;;5003943;28;20030;-90
2023/05/30 09:25:09;;;;;;;8.98;3.58;;;16.00;97.90;;;;;;4983481;28;20084;-91
2023/05/30 09:27:35;;;;;;;10.48;4.32;;;16.10;97.80;;;;;;4982997;28;20037;-88
2023/05/30 09:30:09;;;;;;;13.70;4.28;;;16.10;97.80;;;;;;4997554;28;20112;-88
2023/05/30 09:32:36;;;;;;;11.10;4.18;;;16.20;97.80;;;;;;4983029;28;20529;-88
2023/05/30 09:35:09;;;;;;;12.77;4.05;;;16.20;97.80;;;;;;4983115;28;20022;-89
2023/05/30 09:37:37;;;;;;;12.95;4.47;;;16.30;97.80;;;;;;4983580;28;20033;-91
2023/05/30 09:40:17;;;;;;;13.57;4.47;;;16.40;97.80;;;;;;4982777;28;20487;-91
2023/05/30 09:42:43;;;;;;;15.80;4.28;;;16.40;97.70;;;;;;4998840;28;20064;-91
2023/05/30 09:45:27;;;;;;;9.80;3.50;;;16.50;97.60;;;;;;4982195;28;20145;-89
2023/05/30 09:47:53;;;;;;;10.80;3.63;;;16.50;97.40;;;;;;4997905;28;20423;-88
2023/05/30 09:50:21;;;;;;;10.20;3.80;;;16.60;97.20;;;;;;5014969;28;20068;-89
2023/05/30 09:52:49;;;;;;;12.35;3.80;;;16.70;97.10;;;;;;4981495;28;20372;-88
2023/05/30 09:55:15;;;;;;;9.68;4.10;;;16.70;97.10;;;;;;4998200;28;20052;-88
2023/05/30 09:57:49;;;;;;;12.13;3.90;;;16.80;97.10;;;;;;4998215;28;20029;-89
2023/05/30 10:00:23;;;;;;;11.85;4.13;;;16.80;97.00;;;;;;4998106;28;20022;-89
2023/05/30 10:02:54;;;;;;;11.60;4.30;;;16.90;97.00;;;;;;5002220;28;20490;-88
2023/05/30 10:05:24;;;;;;;11.90;4.00;;;17.00;96.90;;;;;;4998314;28;20037;-89
2023/05/30 10:07:55;;;;;;;14.80;3.90;;;17.10;96.90;;;;;;4998065;28;20386;-90
2023/05/30 10:10:21;;;;;;;12.55;3.63;;;17.10;96.80;;;;;;4998918;28;20026;-90
2023/05/30 10:12:50;;;;;;;10.98;3.67;;;17.20;96.70;;;;;;4983058;28;20025;-88
2023/05/30 10:15:18;;;;;;;10.10;3.42;;;17.20;96.50;;;;;;4998750;28;20018;-88
2023/05/30 10:18:06;;;;;;;9.13;3.67;;;17.30;96.50;;;;;;4998490;28;20117;-90
2023/05/30 10:20:47;;;;;;;11.95;3.25;;;17.40;96.30;;;;;;4998468;28;20037;-89
2023/05/30 10:23:13;;;;;;;12.25;4.22;;;17.50;96.30;;;;;;4999180;28;20026;-94
2023/05/30 10:25:45;;;;;;;8.43;3.88;;;17.50;96.20;;;;;;5002150;28;20026;-94
2023/05/30 10:28:18;;;;;;;14.07;4.05;;;17.60;96.20;;;;;;5005595;28;20034;-95
2023/05/30 10:30:46;;;;;;;10.85;3.67;;;17.70;96.20;;;;;;4987881;28;20022;-94
2023/05/30 10:33:15;;;;;;;11.77;3.67;;;17.80;96.20;;;;;;4979762;28;20014;-95
2023/05/30 10:35:42;;;;;;;9.00;3.60;;;17.80;96.10;;;;;;4975194;28;20034;-90
2023/05/30 10:38:13;;;;;;;8.90;3.60;;;17.90;95.90;;;;;;4985141;28;20037;-89
2023/05/30 10:40:45;;;;;;;9.30;3.88;;;18.00;95.80;;;;;;4998939;28;20025;-95
2023/05/30 10:43:47;;;;;;;11.73;3.80;;;18.00;95.70;;;;;;4999624;28;20486;-95
2023/05/30 10:46:54;;;;;;;10.30;3.70;;;18.10;95.50;;;;;;4999270;28;20061;-96
2023/05/30 10:49:28;;;;;;;9.13;3.83;;;18.20;95.80;;;;;;4999440;28;20028;-95
2023/05/30 10:52:11;;;;;;;11.88;3.83;;;18.30;95.50;;;;;;5015020;28;20183;-92
2023/05/30 10:54:37;;;;;;;10.23;3.38;;;18.30;95.30;;;;;;4967445;28;20156;-91
2023/05/30 10:57:26;;;;;;;10.35;4.00;;;18.40;95.30;;;;;;4984389;28;20065;-91
2023/05/30 10:59:56;;;;;;;8.60;3.80;;;18.40;95.20;;;;;;5001139;28;20072;-92
2023/05/30 11:02:38;;;;;;;8.65;4.00;;;18.50;95.10;;;;;;5020132;28;20026;-89
2023/05/30 11:05:09;;;;;;;12.35;3.53;;;18.60;95.10;;;;;;4983634;28;20068;-91
2023/05/30 11:07:36;;;;;;;;;;;18.60;95.00;;;;;;4998033;28;20022;-88
2023/05/30 11:10:06;;;;;;;9.30;4.07;;;18.60;95.00;;;;;;4996709;28;19905;-88
2023/05/30 11:12:32;;;;;;;10.85;3.67;;;18.70;95.00;;;;;;4997819;28;20010;-88
2023/05/30 11:14:59;;;;;;;10.82;4.05;;;18.70;95.00;;;;;;4982080;28;20049;-87
2023/05/30 11:17:36;;;;;;;11.10;4.00;;;18.70;95.00;;;;;;4980835;28;20033;-88
2023/05/30 11:20:14;;;;;;;9.82;3.88;;;18.80;94.90;;;;;;4997028;28;20021;-87
2023/05/30 11:22:41;;;;;;;15.77;4.03;;;18.90;94.80;;;;;;4997371;28;20026;-88
2023/05/30 11:25:25;;;;;;;10.98;4.47;;;18.90;94.70;;;;;;5001951;28;20097;-94
2023/05/30 11:28:06;;;;;;;10.55;3.95;;;19.00;94.60;;;;;;5001568;28;20026;-94
2023/05/30 11:30:33;;;;;;;9.98;3.58;;;19.10;94.50;;;;;;4999055;28;20072;-94
2023/05/30 11:32:59;;;;;;;8.82;3.28;;;19.10;94.40;;;;;;4982889;28;20038;-94
2023/05/30 11:35:26;;;;;;;8.10;3.42;;;19.20;94.50;;;;;;4982637;28;20028;-94
2023/05/30 11:37:59;;;;;;;9.75;3.60;;;19.20;94.10;;;;;;4982776;28;20034;-94
2023/05/30 11:40:24;;;;;;;10.57;3.58;;;19.30;94.00;;;;;;4983064;28;20030;-95
2023/05/30 11:42:54;;;;;;;8.10;3.38;;;19.30;94.10;;;;;;4981454;28;20610;-87
2023/05/30 11:45:28;;;;;;;10.60;3.85;;;19.30;94.10;;;;;;4996881;28;20034;-88
2023/05/30 11:48:05;;;;;;;8.23;3.85;;;19.40;93.90;;;;;;4996325;28;20030;-87
2023/05/30 11:50:40;;;;;;;9.52;3.63;;;19.50;94.00;;;;;;4980668;28;20144;-94
2023/05/30 11:53:16;;;;;;;11.52;4.00;;;19.50;93.70;;;;;;4983466;28;20026;-95
2023/05/30 11:55:46;;;;;;;12.98;3.63;;;19.60;93.70;;;;;;5004284;28;20460;-95
2023/05/30 11:58:16;;;;;;;11.75;3.90;;;19.70;93.70;;;;;;5002836;28;20029;-90
2023/05/30 12:00:43;;;;;;;11.20;3.80;;;19.70;93.60;;;;;;4984762;28;20037;-89
2023/05/30 12:03:16;;;;;;;9.23;3.92;;;19.80;93.50;;;;;;4968828;28;20036;-89
2023/05/30 12:05:51;;;;;;;10.00;4.63;;;19.90;93.40;;;;;;4985271;28;20185;-90
2023/05/30 12:08:24;;;;;;;10.38;3.35;;;19.90;93.20;;;;;;4984995;28;20030;-89
2023/05/30 12:10:51;;;;;;;9.10;3.72;;;19.90;93.10;;;;;;4984391;28;20041;-86
2023/05/30 12:13:19;;;;;;;10.85;3.85;;;20.00;92.90;;;;;;5014440;28;20379;-89
2023/05/30 12:15:45;;;;;;;11.40;4.18;;;20.00;92.60;;;;;;5016968;28;20033;-90
2023/05/30 12:18:11;;;;;;;9.13;3.30;;;20.10;92.70;;;;;;4993515;28;20138;-90
2023/05/30 12:20:44;;;;;;;10.10;3.28;;;20.10;92.70;;;;;;4948720;28;20084;-89
2023/05/30 12:23:10;;;;;;;9.82;3.60;;;20.20;92.90;;;;;;4948728;28;20061;-90
2023/05/30 12:25:36;;;;;;;10.20;3.25;;;20.20;92.70;;;;;;4966819;28;20027;-95
2023/05/30 12:28:02;;;;;;;9.05;3.25;;;20.30;92.50;;;;;;4966344;28;20447;-96
2023/05/30 12:30:34;;;;;;;8.32;2.80;;;20.30;92.20;;;;;;4953318;28;20031;-94
2023/05/30 12:33:12;;;;;;;8.18;3.03;;;20.40;92.50;;;;;;4980684;28;20026;-91
2023/05/30 12:35:40;;;;;;;7.28;2.88;;;20.40;92.40;;;;;;4979883;28;20030;-89
2023/05/30 12:38:06;;;;;;;9.07;3.15;;;20.50;92.30;;;;;;4980743;28;20422;-89
2023/05/30 12:40:32;;;;;;;10.88;2.97;;;20.50;92.20;;;;;;4964704;28;20031;-91
2023/05/30 12:42:58;;;;;;;7.82;2.58;;;20.60;92.00;;;;;;4980028;28;20117;-90
2023/05/30 12:45:24;;;;;;;8.80;3.20;;;20.60;91.60;;;;;;4980399;28;20026;-90
2023/05/30 12:47:51;;;;;;;11.75;3.55;;;20.60;91.40;;;;;;4964280;28;20058;-91
2023/05/30 12:50:16;;;;;;;8.43;3.72;;;20.70;91.40;;;;;;4947995;28;20463;-90
2023/05/30 12:52:42;;;;;;;7.20;2.80;;;20.80;91.30;;;;;;4963924;28;20121;-90
2023/05/30 12:55:12;;;;;;;8.27;3.03;;;20.80;91.10;;;;;;4948226;28;20119;-89
2023/05/30 12:57:37;;;;;;;7.47;3.33;;;20.90;90.90;;;;;;4949125;28;20118;-88
2023/05/30 13:00:04;;;;;;;7.57;3.83;;;20.90;90.90;;;;;;4948028;28;20109;-89
2023/05/30 13:02:31;;;;;;;7.72;3.53;;;20.90;91.00;;;;;;4980081;28;20034;-89